createdAt,value
2023-02-05T00:01:23.378Z,0.11
2023-02-05T00:03:49.861Z,0.08
2023-02-05T00:06:16.379Z,0.06
2023-02-05T00:08:42.999Z,0.05
2023-02-05T00:11:09.815Z,0.03
2023-02-05T00:13:37.482Z,0.01
2023-02-05T00:16:24.451Z,-0.01
2023-02-05T00:18:51.526Z,-0.02
2023-02-05T00:21:19.870Z,-0.04
2023-02-05T00:23:46.709Z,-0.08
2023-02-05T00:26:14.288Z,-0.12
2023-02-05T00:28:42.014Z,-0.15
2023-02-05T00:31:17.015Z,-0.18
2023-02-05T00:33:44.262Z,-0.22
2023-02-05T00:36:12.895Z,-0.23
2023-02-05T00:38:40.182Z,-0.24
2023-02-05T00:41:06.738Z,-0.24
2023-02-05T00:43:33.191Z,-0.25
2023-02-05T00:45:59.766Z,-0.25
2023-02-05T00:48:26.377Z,-0.26
2023-02-05T00:50:52.954Z,-0.25
2023-02-05T00:53:20.302Z,-0.26
2023-02-05T00:55:46.959Z,-0.27
2023-02-05T00:58:13.911Z,-0.28
2023-02-05T01:00:40.533Z,-0.29
2023-02-05T01:03:07.349Z,-0.30
2023-02-05T01:05:35.243Z,-0.31
2023-02-05T01:08:02.212Z,-0.32
2023-02-05T01:10:29.118Z,-0.31
2023-02-05T01:12:55.833Z,-0.32
2023-02-05T01:15:22.433Z,-0.33
2023-02-05T01:17:49.003Z,-0.35
2023-02-05T01:20:15.730Z,-0.33
2023-02-05T01:22:42.997Z,-0.34
2023-02-05T01:25:10.528Z,-0.36
2023-02-05T01:27:37.095Z,-0.36
2023-02-05T01:30:05.297Z,-0.35
2023-02-05T01:32:32.062Z,-0.38
2023-02-05T01:34:58.511Z,-0.39
2023-02-05T01:37:25.430Z,-0.38
2023-02-05T01:39:52.050Z,-0.39
2023-02-05T01:42:22.046Z,-0.39
2023-02-05T01:45:29.630Z,-0.41
2023-02-05T01:47:58.415Z,-0.41
2023-02-05T01:50:32.171Z,-0.44
2023-02-05T01:53:03.941Z,-0.44
2023-02-05T01:55:31.373Z,-0.45
2023-02-05T01:58:00.361Z,-0.46
2023-02-05T02:00:27.160Z,-0.47
2023-02-05T02:02:53.970Z,-0.47
2023-02-05T02:05:20.472Z,-0.47
2023-02-05T02:07:47.077Z,-0.48
2023-02-05T02:10:15.228Z,-0.48
2023-02-05T02:12:44.028Z,-0.49
2023-02-05T02:15:15.603Z,-0.49
2023-02-05T02:17:44.697Z,-0.50
2023-02-05T02:20:18.880Z,-0.51
2023-02-05T02:22:54.650Z,-0.52
2023-02-05T02:25:37.981Z,-0.53
2023-02-05T02:28:16.629Z,-0.53
2023-02-05T02:30:59.522Z,-0.54
2023-02-05T02:33:41.081Z,-0.55
2023-02-05T02:36:22.044Z,-0.55
2023-02-05T02:38:53.379Z,-0.58
2023-02-05T02:41:27.265Z,-0.58
2023-02-05T02:44:11.218Z,-0.60
2023-02-05T02:46:43.006Z,-0.62
2023-02-05T02:49:17.028Z,-0.62
2023-02-05T02:51:45.326Z,-0.64
2023-02-05T02:54:16.442Z,-0.66
2023-02-05T02:56:45.125Z,-0.68
2023-02-05T02:59:18.358Z,-0.70
2023-02-05T03:01:54.983Z,-0.70
2023-02-05T03:04:29.470Z,-0.69
2023-02-05T03:07:03.563Z,-0.69
2023-02-05T03:09:38.578Z,-0.69
2023-02-05T03:12:05.312Z,-0.70
2023-02-05T03:14:31.885Z,-0.72
2023-02-05T03:16:59.966Z,-0.70
2023-02-05T03:19:28.545Z,-0.73
2023-02-05T03:22:00.873Z,-0.74
2023-02-05T03:24:27.559Z,-0.75
2023-02-05T03:26:54.927Z,-0.76
2023-02-05T03:29:30.837Z,-0.76
2023-02-05T03:32:36.258Z,-0.77
2023-02-05T03:35:10.727Z,-0.76
2023-02-05T03:38:07.134Z,-0.76
2023-02-05T03:40:39.817Z,-0.75
2023-02-05T03:43:36.313Z,-0.76
2023-02-05T03:46:22.941Z,-0.76
2023-02-05T03:49:14.803Z,-0.75
2023-02-05T03:52:03.858Z,-0.73
2023-02-05T03:54:45.551Z,-0.72
2023-02-05T03:57:28.141Z,-0.72
2023-02-05T03:59:58.441Z,-0.71
2023-02-05T04:02:26.078Z,-0.71
2023-02-05T04:04:54.831Z,-0.70
2023-02-05T04:07:21.423Z,-0.69
2023-02-05T04:09:48.647Z,-0.66
2023-02-05T04:12:15.340Z,-0.63
2023-02-05T04:14:43.202Z,-0.60
2023-02-05T04:17:12.403Z,-0.56
2023-02-05T04:19:41.498Z,-0.54
2023-02-05T04:22:08.926Z,-0.52
2023-02-05T04:24:38.349Z,-0.51
2023-02-05T04:27:05.118Z,-0.49
2023-02-05T04:29:32.092Z,-0.48
2023-02-05T04:31:58.609Z,-0.49
2023-02-05T04:34:25.364Z,-0.48
2023-02-05T04:36:52.238Z,-0.47
2023-02-05T04:39:20.331Z,-0.46
2023-02-05T04:41:46.973Z,-0.42
2023-02-05T04:44:14.798Z,-0.38
2023-02-05T04:46:41.430Z,-0.33
2023-02-05T04:49:07.858Z,-0.25
2023-02-05T04:51:34.328Z,-0.18
2023-02-05T04:54:00.789Z,-0.12
2023-02-05T04:56:27.386Z,-0.08
2023-02-05T04:58:54.053Z,-0.04
2023-02-05T05:01:22.938Z,-0.01
2023-02-05T05:03:50.084Z,0.04
2023-02-05T05:06:18.050Z,0.09
2023-02-05T05:08:44.918Z,0.13
2023-02-05T05:11:15.319Z,0.17
2023-02-05T05:13:42.243Z,0.18
2023-02-05T05:16:10.939Z,0.17
2023-02-05T05:18:38.311Z,0.17
2023-02-05T05:21:05.824Z,0.16
2023-02-05T05:23:33.308Z,0.18
2023-02-05T05:25:59.889Z,0.20
2023-02-05T05:28:27.709Z,0.22
2023-02-05T05:30:54.516Z,0.23
2023-02-05T05:33:21.010Z,0.27
2023-02-05T05:35:47.439Z,0.31
2023-02-05T05:38:13.958Z,0.37
2023-02-05T05:41:16.073Z,0.43
2023-02-05T05:43:48.288Z,0.50
2023-02-05T05:46:23.671Z,0.53
2023-02-05T05:48:56.139Z,0.57
2023-02-05T05:51:24.457Z,0.64
2023-02-05T05:53:51.533Z,0.67
2023-02-05T05:56:18.987Z,0.71
2023-02-05T05:58:46.361Z,0.72
2023-02-05T06:01:13.835Z,0.74
2023-02-05T06:03:40.635Z,0.76
2023-02-05T06:06:08.912Z,0.82
2023-02-05T06:08:35.401Z,0.83
2023-02-05T06:11:02.279Z,0.87
2023-02-05T06:13:28.821Z,0.90
2023-02-05T06:15:55.653Z,0.92
2023-02-05T06:18:23.798Z,0.91
2023-02-05T06:20:50.698Z,0.91
2023-02-05T06:23:17.492Z,0.90
2023-02-05T06:25:44.017Z,0.91
2023-02-05T06:28:10.597Z,0.91
2023-02-05T06:30:37.340Z,0.93
2023-02-05T06:33:04.022Z,0.94
2023-02-05T06:35:31.849Z,0.97
2023-02-05T06:37:58.633Z,0.99
2023-02-05T06:40:25.887Z,1.02
2023-02-05T06:42:53.683Z,1.05
2023-02-05T06:45:20.284Z,1.08
2023-02-05T06:47:47.261Z,1.13
2023-02-05T06:50:14.246Z,1.19
2023-02-05T06:52:40.784Z,1.26
2023-02-05T06:55:07.875Z,1.30
2023-02-05T06:57:34.373Z,1.34
2023-02-05T07:00:00.802Z,1.38
2023-02-05T07:02:27.686Z,1.42
2023-02-05T07:04:54.237Z,1.44
2023-02-05T07:07:20.711Z,1.49
2023-02-05T07:09:47.280Z,1.54
2023-02-05T07:12:13.756Z,1.58
2023-02-05T07:14:42.867Z,1.60
2023-02-05T07:17:10.626Z,1.64
2023-02-05T07:19:37.756Z,1.64
2023-02-05T07:22:05.501Z,1.64
2023-02-05T07:24:32.110Z,1.66
2023-02-05T07:26:58.593Z,1.68
2023-02-05T07:29:25.264Z,1.70
2023-02-05T07:31:52.399Z,1.74
2023-02-05T07:34:20.703Z,1.77
2023-02-05T07:36:51.046Z,1.81
2023-02-05T07:39:17.825Z,1.85
2023-02-05T07:41:44.426Z,1.90
2023-02-05T07:44:20.845Z,1.97
2023-02-05T07:46:47.543Z,2.02
2023-02-05T07:49:14.054Z,2.09
2023-02-05T07:51:41.282Z,2.17
2023-02-05T07:54:09.086Z,2.21
2023-02-05T07:56:35.967Z,2.27
2023-02-05T07:59:03.404Z,2.30
2023-02-05T08:01:30.246Z,2.34
2023-02-05T08:03:56.757Z,2.38
2023-02-05T08:06:23.371Z,2.42
2023-02-05T08:08:50.303Z,2.44
2023-02-05T08:11:18.165Z,2.44
2023-02-05T08:13:45.816Z,2.47
2023-02-05T08:16:15.683Z,2.52
2023-02-05T08:18:43.128Z,2.57
2023-02-05T08:21:09.594Z,2.63
2023-02-05T08:23:36.638Z,2.68
2023-02-05T08:26:03.230Z,2.75
2023-02-05T08:28:30.025Z,2.79
2023-02-05T08:30:57.165Z,2.85
2023-02-05T08:33:23.885Z,2.92
2023-02-05T08:35:50.361Z,3.00
2023-02-05T08:38:16.796Z,3.06
2023-02-05T08:40:43.704Z,3.10
2023-02-05T08:43:10.589Z,3.21
2023-02-05T08:45:37.683Z,3.28
2023-02-05T08:48:04.864Z,3.31
2023-02-05T08:50:31.446Z,3.32
2023-02-05T08:52:57.946Z,3.35
2023-02-05T08:55:24.378Z,3.42
2023-02-05T08:57:51.131Z,3.49
2023-02-05T09:00:18.008Z,3.51
2023-02-05T09:02:44.802Z,3.50
2023-02-05T09:05:11.339Z,3.55
2023-02-05T09:07:39.876Z,3.57
2023-02-05T09:10:09.860Z,3.60
2023-02-05T09:12:37.236Z,3.65
2023-02-05T09:15:05.334Z,3.68
2023-02-05T09:17:32.292Z,3.72
2023-02-05T09:20:01.827Z,3.77
2023-02-05T09:22:28.552Z,3.78
2023-02-05T09:24:55.129Z,3.79
2023-02-05T09:27:21.560Z,3.80
2023-02-05T09:29:48.071Z,3.80
2023-02-05T09:32:14.492Z,3.79
2023-02-05T09:34:41.376Z,3.81
2023-02-05T09:37:07.917Z,3.86
2023-02-05T09:40:17.609Z,3.90
2023-02-05T09:42:43.281Z,3.96
2023-02-05T09:45:28.064Z,4.04
2023-02-05T09:48:24.738Z,4.14
2023-02-05T09:50:52.379Z,4.22
2023-02-05T09:53:21.566Z,4.30
2023-02-05T09:55:49.776Z,4.38
2023-02-05T09:58:25.738Z,4.47
2023-02-05T10:01:05.244Z,4.54
2023-02-05T10:03:44.254Z,4.62
2023-02-05T10:06:13.557Z,4.69
2023-02-05T10:08:53.913Z,4.78
2023-02-05T10:11:38.641Z,4.83
2023-02-05T10:14:32.218Z,4.90
2023-02-05T10:17:17.492Z,4.99
2023-02-05T10:20:13.612Z,5.08
2023-02-05T10:22:57.293Z,5.18
2023-02-05T10:25:38.761Z,5.27
2023-02-05T10:28:11.234Z,5.35
2023-02-05T10:30:51.370Z,5.46
2023-02-05T10:33:27.296Z,5.56
2023-02-05T10:36:01.433Z,5.64
2023-02-05T10:38:33.704Z,5.74
2023-02-05T10:41:21.049Z,5.82
2023-02-05T10:43:59.937Z,5.93
2023-02-05T10:46:33.515Z,6.01
2023-02-05T10:49:09.342Z,6.10
2023-02-05T10:51:41.616Z,6.18
2023-02-05T10:54:29.337Z,6.26
2023-02-05T10:56:58.225Z,6.36
2023-02-05T10:59:33.720Z,6.41
2023-02-05T11:02:09.592Z,6.48
2023-02-05T11:04:44.993Z,6.54
2023-02-05T11:07:19.802Z,6.61
2023-02-05T11:09:46.290Z,6.69
2023-02-05T11:12:32.913Z,6.76
2023-02-05T11:15:02.586Z,6.80
2023-02-05T11:17:36.602Z,6.80
2023-02-05T11:20:25.950Z,6.84
2023-02-05T11:23:07.600Z,6.93
2023-02-05T11:25:35.066Z,7.05
2023-02-05T11:28:04.008Z,7.14
2023-02-05T11:30:49.945Z,7.20
2023-02-05T11:33:23.183Z,7.16
2023-02-05T11:35:54.837Z,7.14
2023-02-05T11:38:31.335Z,7.08
2023-02-05T11:41:02.565Z,7.01
2023-02-05T11:43:48.912Z,6.99
2023-02-05T11:46:20.357Z,6.99
2023-02-05T11:49:05.500Z,7.02
2023-02-05T11:51:35.076Z,7.06
2023-02-05T11:54:14.154Z,7.04
2023-02-05T11:56:40.706Z,7.03
2023-02-05T11:59:21.337Z,7.00
2023-02-05T12:01:48.773Z,6.99
2023-02-05T12:04:19.087Z,7.01
2023-02-05T12:07:12.041Z,7.08
2023-02-05T12:09:38.528Z,7.15
2023-02-05T12:12:35.554Z,7.19
2023-02-05T12:15:40.978Z,7.23
2023-02-05T12:18:38.338Z,7.34
2023-02-05T12:21:41.046Z,7.41
2023-02-05T12:24:28.930Z,7.42
2023-02-05T12:27:17.226Z,7.42
2023-02-05T12:29:43.949Z,7.43
2023-02-05T12:32:19.194Z,7.46
2023-02-05T12:34:53.969Z,7.47
2023-02-05T12:37:36.325Z,7.46
2023-02-05T12:40:21.328Z,7.42
2023-02-05T12:42:57.747Z,7.43
2023-02-05T12:46:16.404Z,7.44
2023-02-05T12:48:54.764Z,7.41
2023-02-05T12:51:43.331Z,7.38
2023-02-05T12:54:29.264Z,7.38
2023-02-05T12:57:01.905Z,7.31
2023-02-05T12:59:48.783Z,7.19
2023-02-05T13:02:32.412Z,7.06
2023-02-05T13:05:14.213Z,6.90
2023-02-05T13:07:53.897Z,6.73
2023-02-05T13:10:28.430Z,6.61
2023-02-05T13:13:05.349Z,6.52
2023-02-05T13:15:40.919Z,6.45
2023-02-05T13:18:19.222Z,6.32
2023-02-05T13:21:09.260Z,6.22
2023-02-05T13:23:56.718Z,6.10
2023-02-05T13:26:51.404Z,5.99
2023-02-05T13:29:20.026Z,5.90
2023-02-05T13:31:54.697Z,5.81
2023-02-05T13:34:23.005Z,5.73
2023-02-05T13:37:01.403Z,5.65
2023-02-05T13:39:55.426Z,5.57
2023-02-05T13:42:40.836Z,5.48
2023-02-05T13:45:40.513Z,5.40
2023-02-05T13:48:29.116Z,5.34
2023-02-05T13:51:27.457Z,5.31
2023-02-05T13:54:18.874Z,5.29
2023-02-05T13:57:10.399Z,5.29
2023-02-05T13:59:46.584Z,5.30
2023-02-05T14:02:33.604Z,5.30
2023-02-05T14:05:02.763Z,5.31
2023-02-05T14:07:33.451Z,5.35
2023-02-05T14:10:02.522Z,5.40
2023-02-05T14:12:32.709Z,5.41
2023-02-05T14:15:17.688Z,5.44
2023-02-05T14:17:44.153Z,5.46
2023-02-05T14:20:26.281Z,5.47
2023-02-05T14:22:55.168Z,5.51
2023-02-05T14:25:41.770Z,5.50
2023-02-05T14:28:17.369Z,5.47
2023-02-05T14:30:48.437Z,5.46
2023-02-05T14:33:35.613Z,5.44
2023-02-05T14:36:17.746Z,5.38
2023-02-05T14:38:55.138Z,5.35
2023-02-05T14:41:50.338Z,5.33
2023-02-05T14:44:39.367Z,5.32
2023-02-05T14:47:21.259Z,5.34
2023-02-05T14:49:49.757Z,5.34
2023-02-05T14:52:19.380Z,5.34
2023-02-05T14:54:51.367Z,5.37
2023-02-05T14:57:23.811Z,5.42
2023-02-05T15:00:14.498Z,5.49
2023-02-05T15:03:00.738Z,5.59
2023-02-05T15:05:34.964Z,5.67
2023-02-05T15:08:11.393Z,5.74
2023-02-05T15:10:47.233Z,5.85
2023-02-05T15:13:19.721Z,5.93
2023-02-05T15:16:11.083Z,5.96
2023-02-05T15:18:59.363Z,5.96
2023-02-05T15:21:34.687Z,5.93
2023-02-05T15:24:06.265Z,5.90
2023-02-05T15:27:01.449Z,5.82
2023-02-05T15:29:34.019Z,5.72
2023-02-05T15:32:24.742Z,5.62
2023-02-05T15:34:55.512Z,5.54
2023-02-05T15:37:43.538Z,5.42
2023-02-05T15:40:24.632Z,5.29
2023-02-05T15:42:57.908Z,5.16
2023-02-05T15:45:39.742Z,5.05
2023-02-05T15:48:23.901Z,4.96
2023-02-05T15:50:58.506Z,4.91
2023-02-05T15:53:34.112Z,4.84
2023-02-05T15:56:16.472Z,4.76
2023-02-05T15:58:49.766Z,4.66
2023-02-05T16:01:24.973Z,4.53
2023-02-05T16:03:51.443Z,4.38
2023-02-05T16:06:24.606Z,4.24
2023-02-05T16:08:52.533Z,4.14
2023-02-05T16:11:33.589Z,4.03
2023-02-05T16:14:14.508Z,3.92
2023-02-05T16:16:52.107Z,3.83
2023-02-05T16:19:24.902Z,3.75
2023-02-05T16:21:59.278Z,3.67
2023-02-05T16:24:34.827Z,3.60
2023-02-05T16:27:09.136Z,3.52
2023-02-05T16:29:47.936Z,3.47
2023-02-05T16:32:23.802Z,3.41
2023-02-05T16:34:50.752Z,3.36
2023-02-05T16:37:19.356Z,3.31
2023-02-05T16:39:53.478Z,3.26
2023-02-05T16:42:31.847Z,3.21
2023-02-05T16:45:10.574Z,3.17
2023-02-05T16:47:37.618Z,3.15
2023-02-05T16:50:37.470Z,3.10
2023-02-05T16:53:14.983Z,3.09
2023-02-05T16:55:46.125Z,3.06
2023-02-05T16:58:19.277Z,3.07
2023-02-05T17:00:59.442Z,3.08
2023-02-05T17:03:31.228Z,3.11
2023-02-05T17:06:01.530Z,3.13
2023-02-05T17:08:36.556Z,3.17
2023-02-05T17:11:06.369Z,3.20
2023-02-05T17:13:44.640Z,3.26
2023-02-05T17:16:29.817Z,3.31
2023-02-05T17:19:06.386Z,3.36
2023-02-05T17:21:35.163Z,3.39
2023-02-05T17:24:05.014Z,3.43
2023-02-05T17:26:35.073Z,3.43
2023-02-05T17:29:04.504Z,3.46
2023-02-05T17:31:37.798Z,3.50
2023-02-05T17:34:05.548Z,3.53
2023-02-05T17:36:32.027Z,3.57
2023-02-05T17:38:58.547Z,3.58
2023-02-05T17:41:47.050Z,3.63
2023-02-05T17:44:15.814Z,3.70
2023-02-05T17:46:43.695Z,3.74
2023-02-05T17:49:10.744Z,3.76
2023-02-05T17:51:42.653Z,3.77
2023-02-05T17:54:23.535Z,3.78
2023-02-05T17:56:50.932Z,3.81
2023-02-05T17:59:20.334Z,3.83
2023-02-05T18:01:48.247Z,3.85
2023-02-05T18:04:15.397Z,3.86
2023-02-05T18:06:42.921Z,3.89
2023-02-05T18:09:10.027Z,3.91
2023-02-05T18:11:36.779Z,3.93
2023-02-05T18:14:03.403Z,3.95
2023-02-05T18:16:30.258Z,3.99
2023-02-05T18:18:57.464Z,4.01
2023-02-05T18:21:24.646Z,4.02
2023-02-05T18:23:54.858Z,4.03
2023-02-05T18:26:21.868Z,4.06
2023-02-05T18:28:48.431Z,4.09
2023-02-05T18:31:15.482Z,4.12
2023-02-05T18:33:42.285Z,4.13
2023-02-05T18:36:13.993Z,4.12
2023-02-05T18:38:42.957Z,4.14
2023-02-05T18:41:14.837Z,4.15
2023-02-05T18:43:41.901Z,4.18
2023-02-05T18:46:16.642Z,4.21
2023-02-05T18:48:45.754Z,4.24
2023-02-05T18:51:14.387Z,4.25
2023-02-05T18:53:42.982Z,4.27
2023-02-05T18:56:14.192Z,4.29
2023-02-05T18:58:41.845Z,4.29
2023-02-05T19:01:16.281Z,4.27
2023-02-05T19:03:44.028Z,4.27
2023-02-05T19:06:14.082Z,4.28
2023-02-05T19:08:41.311Z,4.31
2023-02-05T19:11:10.635Z,4.32
2023-02-05T19:13:37.753Z,4.32
2023-02-05T19:16:06.756Z,4.31
2023-02-05T19:18:33.378Z,4.30
2023-02-05T19:21:05.256Z,4.30
2023-02-05T19:23:32.213Z,4.33
2023-02-05T19:26:02.597Z,4.34
2023-02-05T19:28:31.311Z,4.36
2023-02-05T19:31:03.593Z,4.38
2023-02-05T19:33:31.633Z,4.42
2023-02-05T19:35:59.557Z,4.43
2023-02-05T19:38:26.374Z,4.46
2023-02-05T19:40:53.062Z,4.47
2023-02-05T19:43:19.931Z,4.48
2023-02-05T19:45:47.755Z,4.49
2023-02-05T19:48:15.676Z,4.51
2023-02-05T19:50:43.752Z,4.52
2023-02-05T19:53:10.659Z,4.51
2023-02-05T19:55:37.313Z,4.51
2023-02-05T19:58:04.123Z,4.49
2023-02-05T20:00:30.778Z,4.47
2023-02-05T20:02:57.709Z,4.45
2023-02-05T20:05:24.528Z,4.45
2023-02-05T20:07:52.057Z,4.43
2023-02-05T20:10:19.146Z,4.42
2023-02-05T20:12:48.721Z,4.42
2023-02-05T20:15:16.214Z,4.39
2023-02-05T20:17:43.801Z,4.34
2023-02-05T20:20:22.255Z,4.30
2023-02-05T20:22:54.793Z,4.27
2023-02-05T20:25:21.666Z,4.25
2023-02-05T20:27:48.348Z,4.27
2023-02-05T20:30:33.426Z,4.28
2023-02-05T20:33:00.014Z,4.28
2023-02-05T20:35:26.452Z,4.31
2023-02-05T20:37:53.100Z,4.32
2023-02-05T20:40:19.688Z,4.33
2023-02-05T20:42:46.884Z,4.33
2023-02-05T20:45:13.521Z,4.33
2023-02-05T20:47:40.961Z,4.33
2023-02-05T20:50:09.286Z,4.32
2023-02-05T20:52:36.921Z,4.29
2023-02-05T20:55:03.932Z,4.28
2023-02-05T20:57:30.389Z,4.26
2023-02-05T20:59:56.882Z,4.23
2023-02-05T21:02:23.686Z,4.23
2023-02-05T21:04:52.481Z,4.21
2023-02-05T21:07:19.201Z,4.23
2023-02-05T21:09:45.635Z,4.26
2023-02-05T21:12:12.257Z,4.25
2023-02-05T21:14:38.935Z,4.25
2023-02-05T21:17:09.228Z,4.25
2023-02-05T21:19:35.686Z,4.26
2023-02-05T21:22:02.468Z,4.25
2023-02-05T21:24:29.187Z,4.27
2023-02-05T21:26:55.964Z,4.29
2023-02-05T21:29:22.501Z,4.28
2023-02-05T21:31:52.832Z,4.27
2023-02-05T21:34:26.140Z,4.26
2023-02-05T21:36:54.916Z,4.26
2023-02-05T21:39:21.924Z,4.24
2023-02-05T21:41:50.507Z,4.24
2023-02-05T21:44:17.182Z,4.23
2023-02-05T21:46:43.694Z,4.18
2023-02-05T21:49:11.531Z,4.11
2023-02-05T21:51:39.902Z,4.03
2023-02-05T21:54:06.551Z,3.96
2023-02-05T21:56:39.897Z,3.89
2023-02-05T21:59:07.516Z,3.86
2023-02-05T22:01:36.508Z,3.82
2023-02-05T22:04:07.665Z,3.78
2023-02-05T22:06:35.566Z,3.79
2023-02-05T22:09:04.812Z,3.79
2023-02-05T22:11:31.554Z,3.78
2023-02-05T22:13:58.463Z,3.74
2023-02-05T22:16:30.824Z,3.67
2023-02-05T22:18:59.292Z,3.59
2023-02-05T22:21:28.221Z,3.54
2023-02-05T22:23:56.650Z,3.48
2023-02-05T22:26:36.803Z,3.37
2023-02-05T22:29:06.594Z,3.27
2023-02-05T22:31:34.167Z,3.17
2023-02-05T22:34:00.942Z,3.09
2023-02-05T22:36:30.681Z,3.06
2023-02-05T22:38:57.866Z,3.12
2023-02-05T22:41:30.639Z,3.18
2023-02-05T22:43:58.686Z,3.27
2023-02-05T22:46:30.004Z,3.32
2023-02-05T22:48:58.485Z,3.37
2023-02-05T22:51:34.178Z,3.43
2023-02-05T22:54:01.833Z,3.45
2023-02-05T22:56:29.237Z,3.48
2023-02-05T22:58:56.883Z,3.53
2023-02-05T23:01:28.895Z,3.55
2023-02-05T23:03:57.532Z,3.59
2023-02-05T23:06:27.026Z,3.59
2023-02-05T23:08:57.339Z,3.61
2023-02-05T23:11:25.076Z,3.63
2023-02-05T23:13:51.966Z,3.65
2023-02-05T23:16:31.157Z,3.69
2023-02-05T23:19:00.710Z,3.73
2023-02-05T23:21:29.214Z,3.76
2023-02-05T23:23:56.510Z,3.81
2023-02-05T23:26:26.586Z,3.82
2023-02-05T23:28:55.221Z,3.83
2023-02-05T23:31:22.941Z,3.83
2023-02-05T23:33:49.753Z,3.84
2023-02-05T23:36:16.508Z,3.85
2023-02-05T23:38:43.034Z,3.85
2023-02-05T23:41:09.834Z,3.85
2023-02-05T23:43:37.218Z,3.84
2023-02-05T23:46:05.273Z,3.83
2023-02-05T23:48:31.855Z,3.83
2023-02-05T23:50:58.401Z,3.81
2023-02-05T23:53:25.079Z,3.77
2023-02-05T23:55:52.972Z,3.73
2023-02-05T23:58:20.926Z,3.71
